Chicago, Illinois
Current Conditions -  °F | °C
As of 5:53 PM on Sunday 21 Dec 2014 (Local Time) from KMDW Reporting Station
Overcast Overcast  
Wind Chill: 31°   Ceiling: 2000
Heat Index: 37°   Visibility: 10mi
Dew Point: 30°   Wind: 8mph
Humidity: 76%   Direction: 160°SSE
Pressure: 30.09"   Gusts: NA
Location:  41.88°N, 87.63°W
Report Text: KMDW 212353Z 16007KT 10SM BKN020 BKN035 OVC250 03/M01 A3009 RMK AO2 SLP200 T00281011 10033 20022 55001 $
Loading
Personal Weather Stations






























Interactive Weather Map New forecast layout! Learn more

10-Day Weather Forecast

Advertisements
Track Severe Weather on mobile